createdAt,value
2023-04-26T00:00:24.908Z,72869.84
2023-04-26T00:01:04.251Z,72869.84
2023-04-26T00:01:36.793Z,72865.84
2023-04-26T00:02:11.863Z,72861.88
2023-04-26T00:02:44.297Z,72861.88
2023-04-26T00:03:19.413Z,72865.84
2023-04-26T00:03:52.151Z,72865.84
2023-04-26T00:04:29.545Z,72865.84
2023-04-26T00:05:05.377Z,72861.88
2023-04-26T00:05:38.364Z,72857.88
2023-04-26T00:06:10.752Z,72861.88
2023-04-26T00:06:46.179Z,72863.84
2023-04-26T00:07:18.639Z,72861.88
2023-04-26T00:07:51.130Z,72855.88
2023-04-26T00:08:26.093Z,72857.88
2023-04-26T00:08:58.418Z,72857.88
2023-04-26T00:09:30.786Z,72865.84
2023-04-26T00:10:05.769Z,72857.88
2023-04-26T00:10:38.271Z,72865.84
2023-04-26T00:11:10.666Z,72861.88
2023-04-26T00:11:45.618Z,72865.84
2023-04-26T00:12:18.031Z,72861.88
2023-04-26T00:12:50.355Z,72853.88
2023-04-26T00:13:25.341Z,72857.88
2023-04-26T00:13:58.798Z,72857.88
2023-04-26T00:14:31.129Z,72857.88
2023-04-26T00:15:06.588Z,72853.88
2023-04-26T00:15:38.976Z,72857.88
2023-04-26T00:16:11.440Z,72855.88
2023-04-26T00:16:46.458Z,72861.88
2023-04-26T00:17:18.858Z,72861.88
2023-04-26T00:17:51.401Z,72863.84
2023-04-26T00:18:23.922Z,72865.84
2023-04-26T00:18:59.360Z,72865.84
2023-04-26T00:19:34.292Z,72867.84
2023-04-26T00:20:09.947Z,72865.84
2023-04-26T00:20:44.999Z,72861.88
2023-04-26T00:21:17.428Z,72865.84
2023-04-26T00:21:49.765Z,72863.84
2023-04-26T00:22:25.222Z,72865.84
2023-04-26T00:22:57.740Z,72865.84
2023-04-26T00:23:30.624Z,72861.88
2023-04-26T00:24:02.968Z,72865.84
2023-04-26T00:24:38.372Z,72867.84
2023-04-26T00:25:11.571Z,72867.84
2023-04-26T00:25:44.209Z,72863.84
2023-04-26T00:26:19.145Z,72865.84
2023-04-26T00:26:54.497Z,72873.84
2023-04-26T00:27:26.832Z,72865.84
2023-04-26T00:28:02.119Z,72865.84
2023-04-26T00:28:34.506Z,72869.84
2023-04-26T00:29:06.828Z,72869.84
2023-04-26T00:29:41.797Z,72863.84
2023-04-26T00:30:15.384Z,72865.84
2023-04-26T00:30:47.923Z,72865.84
2023-04-26T00:31:23.048Z,72865.84
2023-04-26T00:31:55.584Z,72865.84
2023-04-26T00:32:31.234Z,72869.84
2023-04-26T00:33:03.953Z,72865.84
2023-04-26T00:33:36.703Z,72869.84
2023-04-26T00:34:11.691Z,72863.84
2023-04-26T00:34:46.622Z,72873.84
2023-04-26T00:35:19.519Z,72865.84
2023-04-26T00:35:54.579Z,72871.84
2023-04-26T00:36:27.067Z,72869.84
2023-04-26T00:36:59.461Z,72869.84
2023-04-26T00:37:31.867Z,72871.84
2023-04-26T00:38:07.979Z,72873.84
2023-04-26T00:38:40.428Z,72867.84
2023-04-26T00:39:13.581Z,72869.84
2023-04-26T00:39:48.899Z,72873.84
2023-04-26T00:40:21.365Z,72871.84
2023-04-26T00:40:53.727Z,72873.84
2023-04-26T00:41:28.670Z,72873.84
2023-04-26T00:42:01.979Z,72873.84
2023-04-26T00:42:34.338Z,72873.84
2023-04-26T00:43:09.735Z,72875.84
2023-04-26T00:43:42.090Z,72875.84
2023-04-26T00:44:14.442Z,72869.84
2023-04-26T00:44:50.522Z,72865.84
2023-04-26T00:45:22.850Z,72873.84
2023-04-26T00:45:55.300Z,72865.84
2023-04-26T00:46:31.247Z,72875.84
2023-04-26T00:47:03.806Z,72869.84
2023-04-26T00:47:36.649Z,72871.84
2023-04-26T00:48:12.261Z,72873.84
2023-04-26T00:48:44.990Z,72873.84
2023-04-26T00:49:18.050Z,72871.84
2023-04-26T00:49:55.725Z,72873.84
2023-04-26T00:50:28.263Z,72869.84
2023-04-26T00:51:00.774Z,72875.84
2023-04-26T00:51:36.297Z,72865.84
2023-04-26T00:52:10.405Z,72875.84
2023-04-26T00:52:43.070Z,72873.84
2023-04-26T00:53:19.588Z,72869.84
2023-04-26T00:53:52.029Z,72871.84
2023-04-26T00:54:25.841Z,72869.84
2023-04-26T00:55:00.866Z,72873.84
2023-04-26T00:55:33.287Z,72879.81
2023-04-26T00:56:07.413Z,72875.84
2023-04-26T00:56:42.572Z,72877.84
2023-04-26T00:57:14.988Z,72877.84
2023-04-26T00:57:47.428Z,72875.84
2023-04-26T00:58:22.510Z,72881.81
2023-04-26T00:58:55.157Z,72879.81
2023-04-26T00:59:28.322Z,72877.84
2023-04-26T01:00:03.464Z,72881.81
2023-04-26T01:00:35.847Z,72877.84
2023-04-26T01:01:08.265Z,72881.81
2023-04-26T01:01:45.198Z,72877.84
2023-04-26T01:02:17.983Z,72879.81
2023-04-26T01:02:51.360Z,72875.84
2023-04-26T01:03:27.166Z,72881.81
2023-04-26T01:03:59.872Z,72879.81
2023-04-26T01:04:33.488Z,72885.81
2023-04-26T01:05:12.172Z,72881.81
2023-04-26T01:05:44.866Z,72881.81
2023-04-26T01:06:18.051Z,72883.81
2023-04-26T01:06:53.362Z,72883.81
2023-04-26T01:07:26.098Z,72885.81
2023-04-26T01:08:02.794Z,72881.81
2023-04-26T01:08:36.659Z,72877.84
2023-04-26T01:09:11.078Z,72887.81
2023-04-26T01:09:46.277Z,72873.84
2023-04-26T01:10:18.815Z,72879.81
2023-04-26T01:10:51.270Z,72881.81
2023-04-26T01:11:26.243Z,72883.81
2023-04-26T01:11:58.742Z,72877.84
2023-04-26T01:12:31.100Z,72881.81
2023-04-26T01:13:06.575Z,72881.81
2023-04-26T01:13:39.084Z,72881.81
2023-04-26T01:14:11.853Z,72883.81
2023-04-26T01:14:47.355Z,72881.81
2023-04-26T01:15:21.368Z,72883.81
2023-04-26T01:15:55.638Z,72877.84
2023-04-26T01:16:31.299Z,72885.81
2023-04-26T01:17:03.843Z,72879.81
2023-04-26T01:17:38.013Z,72885.81
2023-04-26T01:18:14.130Z,72881.81
2023-04-26T01:18:52.719Z,72881.81
2023-04-26T01:19:25.843Z,72881.81
2023-04-26T01:20:00.973Z,72889.81
2023-04-26T01:20:35.896Z,72887.81
2023-04-26T01:21:09.230Z,72885.81
2023-04-26T01:21:44.186Z,72889.81
2023-04-26T01:22:16.688Z,72889.81
2023-04-26T01:22:52.339Z,72889.81
2023-04-26T01:23:27.312Z,72885.81
2023-04-26T01:23:59.780Z,72889.81
2023-04-26T01:24:33.344Z,72889.81
2023-04-26T01:25:10.178Z,72897.78
2023-04-26T01:25:42.518Z,72889.81
2023-04-26T01:26:14.997Z,72889.81
2023-04-26T01:26:50.070Z,72889.81
2023-04-26T01:27:22.464Z,72885.81
2023-04-26T01:27:54.934Z,72885.81
2023-04-26T01:28:33.325Z,72889.81
2023-04-26T01:29:14.089Z,72889.81
2023-04-26T01:29:47.795Z,72893.81
2023-04-26T01:30:22.806Z,72893.81
2023-04-26T01:30:55.258Z,72893.81
2023-04-26T01:31:28.593Z,72885.81
2023-04-26T01:32:03.866Z,72893.81
2023-04-26T01:32:36.446Z,72893.81
2023-04-26T01:33:08.915Z,72885.81
2023-04-26T01:33:43.866Z,72891.81
2023-04-26T01:34:17.702Z,72889.81
2023-04-26T01:34:51.990Z,72889.81
2023-04-26T01:35:27.002Z,72889.81
2023-04-26T01:35:59.412Z,72885.81
2023-04-26T01:36:32.744Z,72885.81
2023-04-26T01:37:07.962Z,72889.81
2023-04-26T01:37:40.346Z,72881.81
2023-04-26T01:38:16.373Z,72883.81
2023-04-26T01:38:51.549Z,72889.81
2023-04-26T01:39:26.855Z,72885.81
2023-04-26T01:39:59.213Z,72881.81
2023-04-26T01:40:34.233Z,72887.81
2023-04-26T01:41:06.605Z,72885.81
2023-04-26T01:41:38.966Z,72887.81
2023-04-26T01:42:13.920Z,72889.81
2023-04-26T01:42:46.278Z,72885.81
2023-04-26T01:43:21.289Z,72885.81
2023-04-26T01:43:53.833Z,72893.81
2023-04-26T01:44:28.934Z,72885.81
2023-04-26T01:45:01.287Z,72889.81
2023-04-26T01:45:56.357Z,72889.81
2023-04-26T01:46:35.138Z,72885.81
2023-04-26T01:47:07.485Z,72893.81
2023-04-26T01:47:42.502Z,72893.81
2023-04-26T01:48:14.920Z,72891.81
2023-04-26T01:48:47.587Z,72889.81
2023-04-26T01:49:22.564Z,72899.78
2023-04-26T01:49:54.928Z,72901.78
2023-04-26T01:50:27.602Z,72907.78
2023-04-26T01:51:02.538Z,72905.78
2023-04-26T01:51:34.897Z,72899.78
2023-04-26T01:52:07.294Z,72905.78
2023-04-26T01:52:42.260Z,72901.78
2023-04-26T01:53:17.200Z,72901.78
2023-04-26T01:53:49.642Z,72901.78
2023-04-26T01:54:24.598Z,72905.78
2023-04-26T01:54:58.661Z,72903.78
2023-04-26T01:55:32.651Z,72905.78
2023-04-26T01:56:08.504Z,72907.78
2023-04-26T01:56:42.965Z,72913.75
2023-04-26T01:57:15.379Z,72909.78
2023-04-26T01:57:50.330Z,72917.75
2023-04-26T01:58:22.768Z,72903.78
2023-04-26T01:58:56.704Z,72917.75
2023-04-26T01:59:31.838Z,72909.78
2023-04-26T02:00:05.874Z,72913.75
2023-04-26T02:00:45.759Z,72905.78
2023-04-26T02:01:20.761Z,72913.75
2023-04-26T02:01:53.236Z,72905.78
2023-04-26T02:02:25.796Z,72911.75
2023-04-26T02:03:01.245Z,72909.78
2023-04-26T02:03:35.956Z,72917.75
2023-04-26T02:04:08.605Z,72913.75
2023-04-26T02:04:43.588Z,72911.75
2023-04-26T02:05:16.043Z,72913.75
2023-04-26T02:05:48.438Z,72913.75
2023-04-26T02:06:23.507Z,72913.75
2023-04-26T02:06:57.536Z,72911.75
2023-04-26T02:07:29.876Z,72913.75
2023-04-26T02:08:04.795Z,72913.75
2023-04-26T02:08:39.818Z,72917.75
2023-04-26T02:09:12.433Z,72913.75
2023-04-26T02:09:49.068Z,72917.75
2023-04-26T02:10:21.469Z,72913.75
2023-04-26T02:10:53.919Z,72917.75
2023-04-26T02:11:29.310Z,72915.75
2023-04-26T02:12:01.743Z,72913.75
2023-04-26T02:12:34.182Z,72917.75
2023-04-26T02:13:12.019Z,72913.75
2023-04-26T02:13:44.661Z,72921.75
2023-04-26T02:14:17.070Z,72913.75
2023-04-26T02:14:52.066Z,72913.75
2023-04-26T02:15:24.411Z,72913.75
2023-04-26T02:15:56.858Z,72915.75
2023-04-26T02:16:32.859Z,72913.75
2023-04-26T02:17:06.550Z,72917.75
2023-04-26T02:17:41.184Z,72917.75
2023-04-26T02:18:16.169Z,72919.75
2023-04-26T02:18:50.167Z,72913.75
2023-04-26T02:19:22.771Z,72919.75
2023-04-26T02:19:57.781Z,72921.75
2023-04-26T02:20:30.179Z,72917.75
2023-04-26T02:21:02.533Z,72919.75
2023-04-26T02:21:53.669Z,72915.75
2023-04-26T02:22:26.718Z,72917.75
2023-04-26T02:22:59.142Z,72919.75
2023-04-26T02:23:34.065Z,72919.75
2023-04-26T02:24:09.664Z,72917.75
2023-04-26T02:24:42.105Z,72925.75
2023-04-26T02:25:17.041Z,72925.75
2023-04-26T02:25:49.867Z,72917.75
2023-04-26T02:26:25.289Z,72919.75
2023-04-26T02:27:03.557Z,72919.75
2023-04-26T02:27:35.923Z,72917.75
2023-04-26T02:28:10.899Z,72919.75
2023-04-26T02:28:43.328Z,72909.78
2023-04-26T02:29:15.778Z,72915.75
2023-04-26T02:29:50.743Z,72915.75
2023-04-26T02:30:23.097Z,72917.75
2023-04-26T02:30:56.966Z,72917.75
2023-04-26T02:31:32.392Z,72917.75
2023-04-26T02:32:05.602Z,72921.75
2023-04-26T02:32:37.988Z,72917.75
2023-04-26T02:33:13.001Z,72917.75
2023-04-26T02:33:45.330Z,72913.75
2023-04-26T02:34:18.098Z,72917.75
2023-04-26T02:34:54.547Z,72913.75
2023-04-26T02:35:27.093Z,72913.75
2023-04-26T02:35:59.442Z,72909.78
2023-04-26T02:36:34.437Z,72913.75
2023-04-26T02:37:07.750Z,72917.75
2023-04-26T02:37:40.192Z,72913.75
2023-04-26T02:38:15.778Z,72913.75
2023-04-26T02:38:48.179Z,72917.75
2023-04-26T02:39:23.189Z,72905.78
2023-04-26T02:39:58.145Z,72905.78
2023-04-26T02:40:30.845Z,72905.78
2023-04-26T02:41:04.268Z,72911.75
2023-04-26T02:41:39.700Z,72909.78
2023-04-26T02:42:12.469Z,72909.78
2023-04-26T02:42:45.109Z,72909.78
2023-04-26T02:43:20.227Z,72909.78
2023-04-26T02:43:52.646Z,72909.78
2023-04-26T02:44:25.172Z,72905.78
2023-04-26T02:45:00.159Z,72909.78
2023-04-26T02:45:32.604Z,72911.75
2023-04-26T02:46:07.613Z,72911.75
2023-04-26T02:46:42.589Z,72909.78
2023-04-26T02:47:16.879Z,72909.78
2023-04-26T02:47:49.461Z,72909.78
2023-04-26T02:48:24.723Z,72909.78
2023-04-26T02:48:57.305Z,72915.75
2023-04-26T02:49:30.754Z,72909.78
2023-04-26T02:50:06.063Z,72909.78
2023-04-26T02:50:38.514Z,72909.78
2023-04-26T02:51:11.550Z,72909.78
2023-04-26T02:51:46.529Z,72909.78
2023-04-26T02:52:18.878Z,72905.78
2023-04-26T02:52:51.409Z,72913.75
2023-04-26T02:53:26.338Z,72909.78
2023-04-26T02:54:00.920Z,72905.78
2023-04-26T02:54:35.901Z,72911.75
2023-04-26T02:55:11.974Z,72903.78
2023-04-26T02:55:44.378Z,72909.78
2023-04-26T02:56:16.959Z,72909.78
2023-04-26T02:56:51.964Z,72909.78
2023-04-26T02:57:24.359Z,72907.78
2023-04-26T02:57:56.728Z,72913.75
2023-04-26T02:58:30.166Z,72913.75
2023-04-26T02:59:05.132Z,72911.75
2023-04-26T02:59:37.517Z,72911.75
2023-04-26T03:00:12.109Z,72905.78
2023-04-26T03:00:49.361Z,72907.78
2023-04-26T03:01:22.289Z,72913.75
2023-04-26T03:01:54.823Z,72913.75
2023-04-26T03:02:30.232Z,72909.78
2023-04-26T03:03:03.127Z,72913.75
2023-04-26T03:03:37.745Z,72907.78
2023-04-26T03:04:13.126Z,72905.78
2023-04-26T03:04:46.828Z,72909.78
2023-04-26T03:05:20.259Z,72909.78
2023-04-26T03:05:55.386Z,72911.75
2023-04-26T03:06:28.776Z,72911.75
2023-04-26T03:07:03.906Z,72913.75
2023-04-26T03:07:36.321Z,72907.78
2023-04-26T03:08:09.456Z,72911.75
2023-04-26T03:08:44.881Z,72915.75
2023-04-26T03:09:18.163Z,72905.78
2023-04-26T03:09:53.468Z,72913.75
2023-04-26T03:10:28.574Z,72913.75
2023-04-26T03:11:00.991Z,72909.78
2023-04-26T03:11:33.477Z,72917.75
2023-04-26T03:12:09.608Z,72911.75
2023-04-26T03:12:43.079Z,72915.75
2023-04-26T03:13:15.691Z,72909.78
2023-04-26T03:13:50.780Z,72909.78
2023-04-26T03:14:23.166Z,72913.75
2023-04-26T03:14:55.748Z,72915.75
2023-04-26T03:15:32.684Z,72917.75
2023-04-26T03:16:06.431Z,72911.75
2023-04-26T03:16:42.550Z,72905.78
2023-04-26T03:17:17.604Z,72913.75
2023-04-26T03:17:50.034Z,72913.75
2023-04-26T03:18:22.446Z,72909.78
2023-04-26T03:18:57.485Z,72909.78
2023-04-26T03:19:30.163Z,72913.75
2023-04-26T03:20:03.289Z,72913.75
2023-04-26T03:20:38.283Z,72913.75
2023-04-26T03:21:10.753Z,72919.75
2023-04-26T03:21:43.139Z,72921.75
2023-04-26T03:22:18.891Z,72919.75
2023-04-26T03:22:51.721Z,72919.75
2023-04-26T03:23:25.614Z,72913.75
2023-04-26T03:24:01.631Z,72921.75
2023-04-26T03:24:34.106Z,72921.75
2023-04-26T03:25:10.170Z,72921.75
2023-04-26T03:25:45.478Z,72923.75
2023-04-26T03:26:17.885Z,72921.75
2023-04-26T03:26:51.402Z,72919.75
2023-04-26T03:27:26.691Z,72917.75
2023-04-26T03:27:59.381Z,72923.75
2023-04-26T03:28:31.858Z,72921.75
2023-04-26T03:29:08.694Z,72919.75
2023-04-26T03:29:43.453Z,72919.75
2023-04-26T03:30:16.667Z,72921.75
2023-04-26T03:30:53.124Z,72921.75
2023-04-26T03:31:26.275Z,72919.75
2023-04-26T03:31:58.673Z,72925.75
2023-04-26T03:32:34.081Z,72925.75
2023-04-26T03:33:08.663Z,72917.75
2023-04-26T03:33:41.060Z,72929.72
2023-04-26T03:34:16.027Z,72925.75
2023-04-26T03:34:50.050Z,72921.75
2023-04-26T03:35:22.494Z,72921.75
2023-04-26T03:35:58.509Z,72925.75
2023-04-26T03:36:34.082Z,72917.75
2023-04-26T03:37:07.921Z,72929.72
2023-04-26T03:37:41.479Z,72923.75
2023-04-26T03:38:20.166Z,72921.75
2023-04-26T03:38:52.768Z,72929.72
2023-04-26T03:39:26.527Z,72931.72
2023-04-26T03:40:01.486Z,72925.75
2023-04-26T03:40:36.517Z,72929.72
2023-04-26T03:41:09.251Z,72929.72
2023-04-26T03:41:45.497Z,72933.72
2023-04-26T03:42:18.677Z,72933.72
2023-04-26T03:42:51.027Z,72931.72
2023-04-26T03:43:26.026Z,72933.72
2023-04-26T03:43:58.406Z,72937.72
2023-04-26T03:44:31.300Z,72933.72
2023-04-26T03:45:06.759Z,72933.72
2023-04-26T03:45:39.141Z,72939.72
2023-04-26T03:46:15.153Z,72933.72
2023-04-26T03:46:47.743Z,72933.72
2023-04-26T03:47:20.450Z,72933.72
2023-04-26T03:47:56.135Z,72933.72
2023-04-26T03:48:29.604Z,72933.72
2023-04-26T03:49:04.560Z,72937.72
2023-04-26T03:49:36.944Z,72937.72
2023-04-26T03:50:10.382Z,72941.72
2023-04-26T03:50:45.510Z,72937.72
2023-04-26T03:51:17.873Z,72943.69
2023-04-26T03:51:50.201Z,72941.72
2023-04-26T03:52:22.579Z,72941.72
2023-04-26T03:52:57.846Z,72943.69
2023-04-26T03:53:30.754Z,72941.72
2023-04-26T03:54:03.667Z,72953.69
2023-04-26T03:54:36.364Z,72947.69
2023-04-26T03:55:12.358Z,72941.72
2023-04-26T03:55:47.801Z,72945.69
2023-04-26T03:56:20.626Z,72943.69
2023-04-26T03:56:55.790Z,72947.69
2023-04-26T03:57:28.393Z,72945.69
2023-04-26T03:58:00.801Z,72945.69
2023-04-26T03:58:33.982Z,72945.69
2023-04-26T03:59:09.998Z,72951.69
2023-04-26T03:59:43.810Z,72949.69
2023-04-26T04:00:16.732Z,72941.72
2023-04-26T04:00:51.694Z,72947.69
2023-04-26T04:01:24.049Z,72945.69
2023-04-26T04:01:57.216Z,72949.69
2023-04-26T04:02:33.602Z,72945.69
2023-04-26T04:03:07.844Z,72945.69
2023-04-26T04:03:41.564Z,72945.69
2023-04-26T04:04:17.529Z,72949.69
2023-04-26T04:04:51.286Z,72945.69
2023-04-26T04:05:24.044Z,72949.69
2023-04-26T04:05:59.121Z,72949.69
2023-04-26T04:06:31.540Z,72949.69
2023-04-26T04:07:03.946Z,72949.69
2023-04-26T04:07:38.906Z,72949.69
2023-04-26T04:08:11.307Z,72951.69
2023-04-26T04:08:43.795Z,72943.69
2023-04-26T04:09:18.819Z,72941.72
2023-04-26T04:09:51.398Z,72949.69
2023-04-26T04:10:25.623Z,72949.69
2023-04-26T04:11:03.332Z,72949.69
2023-04-26T04:11:36.510Z,72949.69
2023-04-26T04:12:08.928Z,72951.69
2023-04-26T04:12:41.325Z,72949.69
2023-04-26T04:13:16.558Z,72945.69
2023-04-26T04:13:48.951Z,72949.69
2023-04-26T04:14:21.333Z,72945.69
2023-04-26T04:14:56.460Z,72943.69
2023-04-26T04:15:32.006Z,72945.69
2023-04-26T04:16:05.243Z,72943.69
2023-04-26T04:16:40.300Z,72937.72
2023-04-26T04:17:13.099Z,72947.69
2023-04-26T04:17:45.518Z,72937.72
2023-04-26T04:18:20.602Z,72937.72
2023-04-26T04:18:54.316Z,72937.72
2023-04-26T04:19:27.041Z,72937.72
2023-04-26T04:20:02.086Z,72945.69
2023-04-26T04:20:34.594Z,72949.69
2023-04-26T04:21:07.061Z,72933.72
2023-04-26T04:21:43.480Z,72933.72
2023-04-26T04:22:15.843Z,72929.72
2023-04-26T04:22:48.226Z,72937.72
2023-04-26T04:23:23.858Z,72937.72
2023-04-26T04:23:56.223Z,72931.72
2023-04-26T04:24:28.592Z,72929.72
2023-04-26T04:25:04.994Z,72929.72
2023-04-26T04:25:39.164Z,72933.72
2023-04-26T04:26:17.703Z,72931.72
2023-04-26T04:26:53.003Z,72925.75
2023-04-26T04:27:25.976Z,72933.72
2023-04-26T04:27:58.673Z,72929.72
2023-04-26T04:28:34.613Z,72929.72
2023-04-26T04:29:09.416Z,72925.75
2023-04-26T04:29:43.502Z,72923.75
2023-04-26T04:30:18.793Z,72929.72
2023-04-26T04:30:51.260Z,72925.75
2023-04-26T04:31:23.706Z,72925.75
2023-04-26T04:31:58.912Z,72921.75
2023-04-26T04:32:33.143Z,72921.75
2023-04-26T04:33:05.750Z,72921.75
2023-04-26T04:33:42.621Z,72921.75
2023-04-26T04:34:16.657Z,72921.75
2023-04-26T04:34:50.470Z,72921.75
2023-04-26T04:35:28.947Z,72917.75
2023-04-26T04:36:02.262Z,72917.75
2023-04-26T04:36:34.778Z,72917.75
2023-04-26T04:37:10.448Z,72917.75
2023-04-26T04:37:44.300Z,72913.75
2023-04-26T04:38:19.823Z,72919.75
2023-04-26T04:38:53.887Z,72921.75
2023-04-26T04:39:26.988Z,72921.75
2023-04-26T04:40:02.204Z,72913.75
2023-04-26T04:40:37.812Z,72917.75
2023-04-26T04:41:10.655Z,72917.75
2023-04-26T04:41:49.208Z,72919.75
2023-04-26T04:42:23.699Z,72921.75
2023-04-26T04:42:56.316Z,72913.75
2023-04-26T04:43:34.132Z,72921.75
2023-04-26T04:44:06.834Z,72913.75
2023-04-26T04:44:40.147Z,72925.75
2023-04-26T04:45:15.865Z,72917.75
2023-04-26T04:45:49.719Z,72909.78
2023-04-26T04:46:22.431Z,72917.75
2023-04-26T04:46:58.592Z,72917.75
2023-04-26T04:47:31.093Z,72917.75
2023-04-26T04:48:05.492Z,72917.75
2023-04-26T04:48:41.738Z,72917.75
2023-04-26T04:49:15.152Z,72915.75
2023-04-26T04:49:48.041Z,72917.75
2023-04-26T04:50:23.608Z,72917.75
2023-04-26T04:50:56.295Z,72921.75
2023-04-26T04:51:29.295Z,72925.75
2023-04-26T04:52:04.432Z,72921.75
2023-04-26T04:52:37.108Z,72925.75
2023-04-26T04:53:10.126Z,72925.75
2023-04-26T04:53:45.309Z,72925.75
2023-04-26T04:54:18.769Z,72925.75
2023-04-26T04:54:52.857Z,72927.72
2023-04-26T04:55:28.033Z,72925.75
2023-04-26T04:56:01.023Z,72925.75
2023-04-26T04:56:33.385Z,72921.75
2023-04-26T04:57:11.428Z,72929.72
2023-04-26T04:57:43.886Z,72925.75
2023-04-26T04:58:17.012Z,72941.72
2023-04-26T04:58:52.880Z,72941.72
2023-04-26T04:59:28.077Z,72945.69
2023-04-26T05:00:08.092Z,72941.72
2023-04-26T05:00:43.853Z,72931.72
2023-04-26T05:01:29.708Z,72939.72
2023-04-26T05:02:06.533Z,72941.72
2023-04-26T05:02:39.150Z,72933.72
2023-04-26T05:03:11.973Z,72941.72
2023-04-26T05:03:47.116Z,72941.72
2023-04-26T05:04:19.916Z,72941.72
2023-04-26T05:04:55.683Z,72933.72
2023-04-26T05:05:30.778Z,72945.69
2023-04-26T05:06:03.163Z,72937.72
2023-04-26T05:06:35.635Z,72939.72
2023-04-26T05:07:10.590Z,72941.72
2023-04-26T05:07:45.337Z,72939.72
2023-04-26T05:08:21.182Z,72939.72
2023-04-26T05:08:54.666Z,72935.72
2023-04-26T05:09:29.687Z,72941.72
2023-04-26T05:10:02.857Z,72941.72
2023-04-26T05:10:36.358Z,72939.72
2023-04-26T05:11:11.598Z,72945.69
2023-04-26T05:11:44.035Z,72941.72
2023-04-26T05:12:19.835Z,72945.69
2023-04-26T05:12:54.896Z,72949.69
2023-04-26T05:13:27.344Z,72951.69
2023-04-26T05:14:02.830Z,72941.72
2023-04-26T05:14:36.257Z,72945.69
2023-04-26T05:15:09.485Z,72941.72
2023-04-26T05:15:44.479Z,72949.69
2023-04-26T05:16:17.262Z,72945.69
2023-04-26T05:16:49.770Z,72951.69
2023-04-26T05:17:25.445Z,72945.69
2023-04-26T05:17:59.726Z,72957.69
2023-04-26T05:18:32.168Z,72949.69
2023-04-26T05:19:09.489Z,72949.69
2023-04-26T05:19:42.602Z,72949.69
2023-04-26T05:20:17.768Z,72953.69
2023-04-26T05:20:50.187Z,72949.69
2023-04-26T05:21:22.950Z,72949.69
2023-04-26T05:21:58.109Z,72947.69
2023-04-26T05:22:31.230Z,72945.69
2023-04-26T05:23:04.267Z,72951.69
2023-04-26T05:23:39.288Z,72949.69
2023-04-26T05:24:11.727Z,72951.69
2023-04-26T05:24:47.979Z,72953.69
2023-04-26T05:25:22.512Z,72953.69
2023-04-26T05:26:05.043Z,72949.69
2023-04-26T05:26:56.608Z,72953.69
2023-04-26T05:27:56.354Z,72953.69
2023-04-26T05:28:58.065Z,72953.69
2023-04-26T05:29:53.282Z,72953.69
2023-04-26T05:30:44.392Z,72957.69
2023-04-26T05:31:42.176Z,72959.66
2023-04-26T05:32:41.791Z,72963.66
2023-04-26T05:33:41.761Z,72957.69
2023-04-26T05:34:35.301Z,72965.66
2023-04-26T05:35:11.685Z,72961.66
2023-04-26T05:35:44.059Z,72961.66
2023-04-26T05:36:16.683Z,72965.66
2023-04-26T05:36:51.805Z,72969.66
2023-04-26T05:37:24.197Z,72965.66
2023-04-26T05:37:56.995Z,72965.66
2023-04-26T05:38:32.371Z,72965.66
2023-04-26T05:39:05.961Z,72969.66
2023-04-26T05:39:38.384Z,72965.66
2023-04-26T05:40:14.188Z,72973.63
2023-04-26T05:40:48.463Z,72971.66
2023-04-26T05:41:20.948Z,72975.63
2023-04-26T05:41:56.194Z,72977.63
2023-04-26T05:42:28.623Z,72971.66
2023-04-26T05:43:04.290Z,72979.63
2023-04-26T05:43:40.592Z,72979.63
2023-04-26T05:44:13.718Z,72973.63
2023-04-26T05:44:49.178Z,72969.66
2023-04-26T05:45:22.574Z,72979.63
2023-04-26T05:45:57.410Z,72977.63
2023-04-26T05:46:34.223Z,72975.63
2023-04-26T05:47:06.640Z,72981.63
2023-04-26T05:47:39.049Z,72977.63
2023-04-26T05:48:14.065Z,72985.63
2023-04-26T05:48:46.808Z,72985.63
2023-04-26T05:49:21.999Z,72983.63
2023-04-26T05:49:54.358Z,72987.63
2023-04-26T05:50:26.873Z,72989.59
2023-04-26T05:51:01.828Z,72989.59
2023-04-26T05:51:34.241Z,72991.59
2023-04-26T05:52:06.746Z,72989.59
2023-04-26T05:52:41.695Z,72989.59
2023-04-26T05:53:14.194Z,72989.59
2023-04-26T05:53:49.162Z,72989.59
2023-04-26T05:54:22.432Z,72989.59
2023-04-26T05:54:54.812Z,72985.63
2023-04-26T05:55:29.802Z,72985.63
2023-04-26T05:56:02.627Z,72985.63
2023-04-26T05:56:35.132Z,72985.63
2023-04-26T05:57:10.177Z,72983.63
2023-04-26T05:57:44.077Z,72981.63
2023-04-26T05:58:19.092Z,72981.63
2023-04-26T05:58:54.673Z,72989.59
2023-04-26T05:59:27.183Z,72985.63
2023-04-26T06:00:00.174Z,72997.59
2023-04-26T06:00:36.615Z,72987.63
2023-04-26T06:01:08.996Z,72989.59
2023-04-26T06:01:42.574Z,72993.59
2023-04-26T06:02:17.696Z,72985.63
2023-04-26T06:02:50.501Z,72995.59
2023-04-26T06:03:26.455Z,72989.59
2023-04-26T06:04:01.156Z,72989.59
2023-04-26T06:04:38.695Z,72993.59
2023-04-26T06:05:20.268Z,72995.59
2023-04-26T06:05:53.067Z,72997.59
2023-04-26T06:06:28.587Z,72995.59
2023-04-26T06:07:03.651Z,73001.59
2023-04-26T06:07:36.245Z,72991.59
2023-04-26T06:08:11.497Z,73001.59
2023-04-26T06:08:44.059Z,72993.59
2023-04-26T06:09:20.253Z,72997.59
2023-04-26T06:09:53.339Z,72997.59
2023-04-26T06:10:26.824Z,72997.59
2023-04-26T06:11:01.893Z,73001.59
2023-04-26T06:11:34.274Z,73003.59
2023-04-26T06:12:07.185Z,73005.56
2023-04-26T06:12:45.238Z,72995.59
2023-04-26T06:13:20.363Z,72995.59
2023-04-26T06:13:55.560Z,72993.59
2023-04-26T06:14:30.801Z,73007.56
2023-04-26T06:15:09.826Z,73005.56
2023-04-26T06:15:47.058Z,73005.56
2023-04-26T06:16:19.578Z,73001.59
2023-04-26T06:16:53.848Z,72997.59
2023-04-26T06:17:29.605Z,72995.59
2023-04-26T06:18:02.101Z,73005.56
2023-04-26T06:18:37.219Z,72999.59
2023-04-26T06:19:09.671Z,72995.59
2023-04-26T06:19:42.203Z,72997.59
2023-04-26T06:20:17.243Z,72993.59
2023-04-26T06:20:49.681Z,72995.59
2023-04-26T06:21:24.630Z,72989.59
2023-04-26T06:21:57.475Z,72991.59
2023-04-26T06:22:30.217Z,72999.59
2023-04-26T06:23:05.152Z,72993.59
2023-04-26T06:23:37.480Z,72989.59
2023-04-26T06:24:09.859Z,72985.63
2023-04-26T06:24:45.527Z,72993.59
2023-04-26T06:25:18.129Z,72991.59
2023-04-26T06:25:53.081Z,72989.59
2023-04-26T06:26:25.575Z,72989.59
2023-04-26T06:26:57.937Z,72989.59
2023-04-26T06:27:32.897Z,72989.59
2023-04-26T06:28:05.479Z,72985.63
2023-04-26T06:28:43.059Z,72989.59
2023-04-26T06:29:15.680Z,72991.59
2023-04-26T06:29:48.614Z,72993.59
2023-04-26T06:30:24.494Z,72995.59
2023-04-26T06:30:58.654Z,73001.59
2023-04-26T06:31:34.244Z,73001.59
2023-04-26T06:32:07.474Z,72997.59
2023-04-26T06:32:41.476Z,73001.59
2023-04-26T06:33:16.651Z,72993.59
2023-04-26T06:33:49.007Z,72999.59
2023-04-26T06:34:21.358Z,72999.59
2023-04-26T06:34:56.428Z,73001.59
2023-04-26T06:35:28.823Z,73001.59
2023-04-26T06:36:01.193Z,73001.59
2023-04-26T06:36:36.926Z,73005.56
2023-04-26T06:37:09.387Z,73009.56
2023-04-26T06:37:47.266Z,73005.56
2023-04-26T06:38:23.166Z,73005.56
2023-04-26T06:38:56.932Z,73007.56
2023-04-26T06:39:29.339Z,73013.56
2023-04-26T06:40:04.747Z,73007.56
2023-04-26T06:40:37.323Z,73007.56
2023-04-26T06:41:12.337Z,73009.56
2023-04-26T06:41:44.824Z,73013.56
2023-04-26T06:42:18.150Z,73005.56
2023-04-26T06:43:08.240Z,73015.56
2023-04-26T06:43:53.067Z,73005.56
2023-04-26T06:44:29.566Z,73015.56